Time;durP1;ratioP1;P1;durP2;ratioP2;P2;SDS_P1;SDS_P2;PMS_P1;PMS_P2;Temp;Humidity;BMP_temperature;BMP_pressure;BME280_temperature;BME280_humidity;BME280_pressure;Samples;Min_cycle;Max_cycle;Signal;HPM_P1;HPM_P2
2022/10/02 00:00:53;;;;;;;10.48;3.25;;;19.00;71.30;;;;;;7376512;19;20019;-87
2022/10/02 00:03:28;;;;;;;12.68;3.50;;;19.00;71.50;;;;;;7378312;19;20207;-86
2022/10/02 00:06:04;;;;;;;11.23;3.63;;;19.00;71.60;;;;;;7392832;19;20046;-87
2022/10/02 00:08:37;;;;;;;18.23;6.38;;;19.00;71.50;;;;;;7372940;19;20034;-88
2022/10/02 00:11:13;;;;;;;11.15;3.47;;;19.00;71.60;;;;;;7372476;19;20590;-87
2022/10/02 00:13:47;;;;;;;10.95;3.13;;;19.00;71.60;;;;;;7372704;19;20018;-87
2022/10/02 00:16:27;;;;;;;16.13;3.72;;;19.00;71.80;;;;;;7377465;19;20074;-87
2022/10/02 00:18:57;;;;;;;16.25;3.20;;;19.00;71.80;;;;;;7378447;19;20006;-87
2022/10/02 00:21:50;;;;;;;18.83;3.35;;;19.00;71.80;;;;;;7377637;19;20051;-87
2022/10/02 00:24:24;;;;;;;14.48;3.70;;;19.00;72.20;;;;;;7372686;19;20052;-87
2022/10/02 00:26:58;;;;;;;16.55;3.47;;;19.00;72.10;;;;;;7396866;19;20015;-86
2022/10/02 00:29:39;;;;;;;15.85;3.42;;;19.00;72.20;;;;;;7374896;19;20038;-87
2022/10/02 00:32:20;;;;;;;17.83;3.83;;;19.00;72.30;;;;;;7375659;19;20010;-87
2022/10/02 00:35:19;;;;;;;12.80;3.30;;;19.00;72.40;;;;;;7376999;19;20018;-87
2022/10/02 00:37:58;;;;;;;16.40;3.47;;;19.00;72.40;;;;;;7378696;19;20074;-86
2022/10/02 00:40:44;;;;;;;16.83;3.55;;;19.00;72.40;;;;;;7378847;19;20023;-86
2022/10/02 00:43:29;;;;;;;12.95;3.30;;;19.00;72.60;;;;;;7375922;19;20362;-86
2022/10/02 00:46:19;;;;;;;15.45;4.28;;;19.00;72.80;;;;;;7374386;19;20023;-87
2022/10/02 00:49:12;;;;;;;19.88;4.05;;;19.00;72.90;;;;;;7380257;19;20015;-87
2022/10/02 00:51:58;;;;;;;14.93;3.72;;;19.00;73.00;;;;;;7376980;19;20028;-86
2022/10/02 00:54:49;;;;;;;13.73;3.75;;;19.00;73.20;;;;;;7372792;19;20018;-86
2022/10/02 00:57:30;;;;;;;16.48;3.90;;;19.00;73.30;;;;;;7370101;19;20011;-86
2022/10/02 01:00:07;;;;;;;8.67;3.40;;;19.00;73.40;;;;;;7394917;19;20465;-86
2022/10/02 01:02:59;;;;;;;22.48;3.78;;;19.00;73.40;;;;;;7372312;19;20287;-86
2022/10/02 01:05:31;;;;;;;15.25;3.30;;;19.00;73.70;;;;;;7372680;19;20019;-87
2022/10/02 01:08:00;;;;;;;15.63;3.25;;;19.00;73.80;;;;;;7373509;19;20022;-87
2022/10/02 01:10:30;;;;;;;14.13;2.90;;;19.10;74.00;;;;;;7373728;19;20026;-87
2022/10/02 01:13:00;;;;;;;15.52;3.17;;;19.10;74.20;;;;;;7374558;19;20570;-87
2022/10/02 01:15:33;;;;;;;17.10;2.70;;;19.10;75.00;;;;;;7378731;19;20346;-87
2022/10/02 01:18:03;;;;;;;9.82;3.53;;;19.10;74.30;;;;;;7380812;19;20011;-88
2022/10/02 01:20:40;;;;;;;6.22;2.28;;;19.10;74.40;;;;;;7396594;19;20024;-87
2022/10/02 01:23:17;;;;;;;7.68;2.50;;;19.00;75.90;;;;;;7371994;19;20018;-87
2022/10/02 01:25:49;;;;;;;14.00;3.17;;;19.00;76.20;;;;;;7372231;19;20457;-86
2022/10/02 01:28:18;;;;;;;13.85;2.70;;;19.10;76.20;;;;;;7374417;19;20018;-87
2022/10/02 01:30:51;;;;;;;6.97;2.30;;;19.10;77.20;;;;;;7373315;19;20010;-88
2022/10/02 01:33:21;;;;;;;9.98;3.03;;;19.10;77.60;;;;;;7371330;19;20042;-87
2022/10/02 01:35:50;;;;;;;7.32;2.33;;;19.10;77.40;;;;;;7390721;19;20018;-88
2022/10/02 01:38:22;;;;;;;10.90;2.40;;;19.10;77.60;;;;;;7378152;19;20014;-87
2022/10/02 01:40:53;;;;;;;;;;;19.10;78.30;;;;;;7379134;19;20015;-87
2022/10/02 01:43:25;;;;;;;6.88;2.10;;;19.20;78.60;;;;;;7377941;19;19958;-88
2022/10/02 01:46:11;;;;;;;6.40;2.20;;;19.10;79.10;;;;;;7378652;19;20045;-88
2022/10/02 01:48:48;;;;;;;6.55;2.45;;;19.10;79.30;;;;;;7378641;19;20042;-88
2022/10/02 01:52:01;;;;;;;11.18;2.50;;;19.10;79.10;;;;;;7380448;19;20022;-88
2022/10/02 01:54:42;;;;;;;8.32;2.45;;;19.20;79.40;;;;;;7388510;19;20022;-88
2022/10/02 01:57:25;;;;;;;7.15;2.40;;;19.20;79.20;;;;;;7385494;19;20018;-89
2022/10/02 02:00:09;;;;;;;6.35;2.95;;;19.20;79.40;;;;;;7401747;19;20011;-88
2022/10/02 02:02:47;;;;;;;5.80;2.58;;;19.20;79.50;;;;;;7381062;19;20014;-88
2022/10/02 02:05:28;;;;;;;8.43;2.70;;;19.20;80.20;;;;;;7379488;19;20035;-88
2022/10/02 02:08:07;;;;;;;10.77;2.97;;;19.30;79.40;;;;;;7386472;19;20082;-85
2022/10/02 02:10:46;;;;;;;9.63;3.08;;;19.30;79.30;;;;;;7386425;19;20058;-86
2022/10/02 02:13:25;;;;;;;10.93;2.63;;;19.30;79.40;;;;;;7391287;19;20042;-87
2022/10/02 02:16:01;;;;;;;11.23;2.92;;;19.30;80.30;;;;;;7388350;19;20020;-88
2022/10/02 02:18:35;;;;;;;11.15;2.90;;;19.40;79.60;;;;;;7385925;19;20015;-87
2022/10/02 02:21:08;;;;;;;15.30;2.75;;;19.40;79.60;;;;;;7389688;19;20024;-87
2022/10/02 02:23:39;;;;;;;13.85;3.35;;;19.40;79.70;;;;;;7418194;19;20007;-87
2022/10/02 02:26:11;;;;;;;10.63;2.80;;;19.30;79.70;;;;;;7396307;19;20358;-87
2022/10/02 02:28:49;;;;;;;8.57;2.80;;;19.40;79.90;;;;;;7397336;19;20033;-88
2022/10/02 02:31:22;;;;;;;9.77;2.60;;;19.30;80.00;;;;;;7398293;19;20201;-86
2022/10/02 02:33:54;;;;;;;4.82;2.47;;;19.40;80.10;;;;;;7394794;19;20014;-87
2022/10/02 02:36:27;;;;;;;8.27;2.60;;;19.40;80.20;;;;;;7381487;19;20022;-87
2022/10/02 02:39:00;;;;;;;9.90;3.03;;;19.40;80.20;;;;;;7404013;19;20590;-87
2022/10/02 02:41:32;;;;;;;13.40;3.00;;;19.40;80.30;;;;;;7386654;19;20011;-88
2022/10/02 02:44:11;;;;;;;15.95;2.70;;;19.30;80.60;;;;;;7387508;19;20018;-87
2022/10/02 02:49:26;;;;;;;12.88;3.10;;;19.30;81.00;;;;;;7378589;19;20038;-87
2022/10/02 02:51:58;;;;;;;9.02;2.78;;;19.30;81.10;;;;;;7378163;19;20034;-88
2022/10/02 02:54:32;;;;;;;7.20;2.70;;;19.30;81.20;;;;;;7377592;19;20010;-88
2022/10/02 02:57:03;;;;;;;4.95;2.60;;;19.30;81.20;;;;;;7387147;19;20018;-88
2022/10/02 02:59:38;;;;;;;3.95;2.53;;;19.30;81.30;;;;;;7400278;19;20019;-87
2022/10/02 03:02:07;;;;;;;6.53;2.53;;;19.30;81.50;;;;;;7376761;19;20113;-88
2022/10/02 03:04:36;;;;;;;7.40;2.40;;;19.40;81.40;;;;;;7376061;19;20031;-88
2022/10/02 03:07:07;;;;;;;7.38;2.50;;;19.40;81.50;;;;;;7376070;19;20034;-87
2022/10/02 03:09:36;;;;;;;6.35;2.70;;;19.30;81.90;;;;;;7374923;19;20017;-88
2022/10/02 03:12:17;;;;;;;6.13;2.58;;;19.30;82.40;;;;;;7375044;19;20014;-87
2022/10/02 03:15:10;;;;;;;5.53;2.90;;;19.30;82.40;;;;;;7395539;19;20307;-87
2022/10/02 03:17:57;;;;;;;5.60;2.60;;;19.30;82.20;;;;;;7377564;19;20010;-88
2022/10/02 03:20:35;;;;;;;9.32;2.63;;;19.30;82.00;;;;;;7375700;19;20035;-87
2022/10/02 03:23:12;;;;;;;5.03;2.45;;;19.40;82.20;;;;;;7377556;19;20085;-87
2022/10/02 03:25:44;;;;;;;4.25;2.33;;;19.40;82.00;;;;;;7376874;19;20054;-88
2022/10/02 03:28:18;;;;;;;5.65;2.35;;;19.30;82.20;;;;;;7381112;19;20015;-88
2022/10/02 03:30:51;;;;;;;8.70;2.50;;;19.40;82.20;;;;;;7384169;19;20014;-89
2022/10/02 03:33:21;;;;;;;3.83;2.30;;;19.30;82.10;;;;;;7381879;19;20016;-88
2022/10/02 03:35:52;;;;;;;9.77;2.70;;;19.40;82.10;;;;;;7402464;19;20063;-89
2022/10/02 03:38:23;;;;;;;4.18;2.38;;;19.40;82.10;;;;;;7375336;19;20083;-87
2022/10/02 03:40:52;;;;;;;5.45;2.75;;;19.40;82.10;;;;;;7376821;19;20010;-88
2022/10/02 03:43:24;;;;;;;9.70;2.53;;;19.40;82.10;;;;;;7377934;19;20066;-88
2022/10/02 03:45:55;;;;;;;;;;;19.30;82.10;;;;;;7378660;19;20011;-88
2022/10/02 03:48:24;;;;;;;5.30;2.08;;;19.40;82.40;;;;;;7373356;19;19927;-88
2022/10/02 03:50:53;;;;;;;4.80;2.03;;;19.40;82.20;;;;;;7395047;19;20324;-88
2022/10/02 03:53:26;;;;;;;2.25;1.45;;;19.40;82.30;;;;;;7375025;19;20037;-88
2022/10/02 03:55:57;;;;;;;2.63;1.40;;;19.30;82.50;;;;;;7378936;19;20011;-89
2022/10/02 03:58:27;;;;;;;4.78;1.67;;;19.20;82.70;;;;;;7376499;19;20023;-88
2022/10/02 04:01:04;;;;;;;2.17;1.40;;;19.30;83.00;;;;;;7376864;19;20002;-88
2022/10/02 04:03:37;;;;;;;1.83;1.10;;;19.30;83.00;;;;;;7377102;19;20041;-88
2022/10/02 04:06:11;;;;;;;3.80;1.70;;;19.30;82.80;;;;;;7380762;19;20015;-88
2022/10/02 04:08:45;;;;;;;3.22;1.30;;;19.20;83.00;;;;;;7404637;19;20042;-87
2022/10/02 04:11:22;;;;;;;2.90;1.20;;;19.20;82.80;;;;;;7377696;19;20335;-87
2022/10/02 04:13:57;;;;;;;2.63;0.90;;;19.30;82.70;;;;;;7372365;19;20509;-87
2022/10/02 04:16:34;;;;;;;1.33;1.13;;;19.30;82.40;;;;;;7371867;19;20038;-87
2022/10/02 04:19:09;;;;;;;2.50;0.98;;;19.30;82.40;;;;;;7371818;19;20022;-86
2022/10/02 04:21:43;;;;;;;2.97;1.00;;;19.20;82.40;;;;;;7373767;19;20055;-87
2022/10/02 04:24:22;;;;;;;2.08;0.98;;;19.30;82.50;;;;;;7372451;19;20031;-87
2022/10/02 04:27:01;;;;;;;1.58;0.77;;;19.30;82.30;;;;;;7392931;19;20481;-87
2022/10/02 04:29:37;;;;;;;2.50;0.80;;;19.20;82.40;;;;;;7372488;19;20058;-88
2022/10/02 04:32:15;;;;;;;0.95;0.70;;;19.30;82.40;;;;;;7371451;19;20069;-87
2022/10/02 04:34:44;;;;;;;1.50;1.00;;;19.30;82.30;;;;;;7375024;19;20019;-87
2022/10/02 04:37:37;;;;;;;0.70;0.70;;;19.40;82.20;;;;;;7371709;19;20014;-87
2022/10/02 04:40:25;;;;;;;1.13;0.70;;;19.30;82.10;;;;;;7374644;19;20007;-87
2022/10/02 04:43:06;;;;;;;1.67;0.80;;;19.40;81.90;;;;;;7378229;19;20010;-86
2022/10/02 04:45:50;;;;;;;0.80;0.60;;;19.30;81.90;;;;;;7383298;19;20006;-87
2022/10/02 04:48:49;;;;;;;4.63;0.80;;;19.30;81.90;;;;;;7378573;19;20263;-87
2022/10/02 04:51:36;;;;;;;1.65;0.73;;;19.30;81.90;;;;;;7373175;19;20127;-87
2022/10/02 04:54:27;;;;;;;1.75;0.70;;;19.20;81.70;;;;;;7373792;19;20010;-87
2022/10/02 04:57:16;;;;;;;0.82;0.60;;;19.20;81.70;;;;;;7399594;19;20011;-89
2022/10/02 05:00:02;;;;;;;0.57;0.57;;;19.20;81.90;;;;;;7379617;19;20031;-89
2022/10/02 05:02:42;;;;;;;2.05;0.60;;;19.20;81.90;;;;;;7379017;19;20019;-89
2022/10/02 05:05:26;;;;;;;3.08;0.80;;;19.10;81.60;;;;;;7376254;19;20028;-89
2022/10/02 05:08:15;;;;;;;4.38;0.80;;;19.10;81.90;;;;;;7377576;19;20015;-88
2022/10/02 05:11:01;;;;;;;1.42;0.60;;;19.10;81.70;;;;;;7373733;19;20019;-88
2022/10/02 05:13:54;;;;;;;2.20;0.60;;;19.10;81.60;;;;;;7378399;19;20503;-87
2022/10/02 05:16:34;;;;;;;0.77;0.52;;;19.10;81.50;;;;;;7384321;19;20015;-88
2022/10/02 05:19:18;;;;;;;3.50;1.15;;;19.10;81.40;;;;;;7386896;19;20448;-88
2022/10/02 05:22:20;;;;;;;0.73;0.70;;;19.10;81.40;;;;;;7387202;19;20050;-88
2022/10/02 05:25:06;;;;;;;1.92;0.73;;;19.10;81.50;;;;;;7379579;19;21022;-90
2022/10/02 05:27:51;;;;;;;6.72;1.02;;;19.10;81.20;;;;;;7379763;19;20032;-88
2022/10/02 05:30:22;;;;;;;1.73;0.80;;;19.20;81.10;;;;;;7374789;19;20106;-88
2022/10/02 05:33:04;;;;;;;3.55;1.00;;;19.20;80.90;;;;;;7397422;19;20015;-87
2022/10/02 05:35:47;;;;;;;1.27;0.88;;;19.10;80.80;;;;;;7377579;19;20018;-87
2022/10/02 05:38:26;;;;;;;1.80;0.70;;;19.10;80.70;;;;;;7376847;19;20014;-87
2022/10/02 05:41:02;;;;;;;3.80;1.00;;;19.10;80.70;;;;;;7374708;19;20022;-89
2022/10/02 05:43:40;;;;;;;3.55;0.80;;;19.00;80.80;;;;;;7373689;19;20018;-87
2022/10/02 05:46:14;;;;;;;1.95;0.80;;;19.00;80.80;;;;;;7374332;19;20422;-88
2022/10/02 05:48:47;;;;;;;6.18;0.80;;;19.00;80.90;;;;;;7374973;19;20031;-88
2022/10/02 05:51:24;;;;;;;4.47;0.85;;;19.00;80.90;;;;;;7375779;19;20031;-87
2022/10/02 05:54:04;;;;;;;3.25;1.00;;;18.90;81.10;;;;;;7395824;19;20498;-85
2022/10/02 05:56:40;;;;;;;1.73;1.00;;;18.90;81.40;;;;;;7381850;19;20125;-85
2022/10/02 05:59:17;;;;;;;2.03;0.95;;;18.90;81.60;;;;;;7380768;19;20458;-86
2022/10/02 06:01:50;;;;;;;4.10;1.13;;;18.90;82.50;;;;;;7376337;19;20014;-85
2022/10/02 06:04:29;;;;;;;4.65;1.10;;;18.90;82.50;;;;;;7377630;19;20445;-89
2022/10/02 06:07:05;;;;;;;2.80;1.00;;;18.90;83.30;;;;;;7380603;19;20018;-88
2022/10/02 06:09:38;;;;;;;2.20;1.27;;;18.90;82.40;;;;;;7376127;19;20014;-89
2022/10/02 06:12:14;;;;;;;2.88;0.93;;;19.00;82.40;;;;;;7379939;19;20010;-84
2022/10/02 06:14:49;;;;;;;3.28;1.10;;;18.80;83.10;;;;;;7398985;19;20018;-86
2022/10/02 06:17:26;;;;;;;1.83;0.90;;;18.90;83.40;;;;;;7376242;19;20018;-87
2022/10/02 06:20:00;;;;;;;5.63;0.93;;;18.80;83.80;;;;;;7383123;19;20011;-86
2022/10/02 06:22:33;;;;;;;1.10;0.82;;;18.90;83.80;;;;;;7378802;19;20014;-87
2022/10/02 06:25:07;;;;;;;4.47;1.00;;;18.90;83.70;;;;;;7380996;19;20038;-87
2022/10/02 06:27:45;;;;;;;3.50;0.95;;;19.00;83.80;;;;;;7381959;19;20019;-87
2022/10/02 06:30:16;;;;;;;2.63;0.73;;;19.00;83.80;;;;;;7377249;19;20617;-87
2022/10/02 06:32:53;;;;;;;4.40;1.00;;;19.10;83.70;;;;;;7400768;19;20096;-87
2022/10/02 06:35:36;;;;;;;2.92;0.77;;;19.10;83.60;;;;;;7385278;19;20010;-89
2022/10/02 06:38:15;;;;;;;2.50;0.73;;;19.00;84.10;;;;;;7388482;19;20027;-88
2022/10/02 06:40:57;;;;;;;5.38;0.65;;;19.10;84.00;;;;;;7383590;19;20022;-88
2022/10/02 06:43:56;;;;;;;3.65;0.50;;;19.10;84.10;;;;;;7381218;19;20446;-88
2022/10/02 06:46:34;;;;;;;1.13;0.47;;;19.00;84.90;;;;;;7379356;19;20031;-86
2022/10/02 06:49:10;;;;;;;3.97;0.70;;;19.10;84.40;;;;;;7376279;19;20086;-87
2022/10/02 06:51:53;;;;;;;2.75;0.88;;;19.10;84.30;;;;;;7377510;19;20014;-87
2022/10/02 06:54:44;;;;;;;2.33;0.60;;;19.20;84.00;;;;;;7373237;19;20008;-86
2022/10/02 06:57:36;;;;;;;8.30;0.70;;;19.20;84.00;;;;;;7373174;19;20485;-86
2022/10/02 07:00:13;;;;;;;2.05;0.90;;;19.20;83.80;;;;;;7374546;19;20018;-86
2022/10/02 07:03:08;;;;;;;2.83;0.95;;;19.20;83.70;;;;;;7397696;19;20080;-86
2022/10/02 07:06:05;;;;;;;1.08;0.70;;;19.30;83.60;;;;;;7376291;19;20022;-86
2022/10/02 07:08:46;;;;;;;4.15;0.80;;;19.30;83.40;;;;;;7377907;19;20035;-86
2022/10/02 07:11:23;;;;;;;4.47;0.80;;;19.30;83.00;;;;;;7382789;19;20025;-87
2022/10/02 07:14:06;;;;;;;19.83;1.60;;;19.40;82.80;;;;;;7387962;19;20026;-85
2022/10/02 07:17:04;;;;;;;2.85;1.10;;;19.40;82.80;;;;;;7394631;19;20022;-85
2022/10/02 07:19:46;;;;;;;2.00;1.00;;;19.40;82.50;;;;;;7385185;19;20011;-86
2022/10/02 07:22:38;;;;;;;5.80;1.40;;;19.50;82.30;;;;;;7381790;19;20011;-87
2022/10/02 07:25:31;;;;;;;5.00;1.20;;;19.50;81.60;;;;;;7391275;19;20007;-87
2022/10/02 07:28:11;;;;;;;4.30;1.10;;;19.50;81.60;;;;;;7398610;19;20006;-87
2022/10/02 07:30:47;;;;;;;7.65;1.50;;;19.50;81.30;;;;;;7401180;19;20030;-87
2022/10/02 07:33:27;;;;;;;8.63;1.88;;;19.40;80.90;;;;;;7398567;19;20002;-87
2022/10/02 07:36:13;;;;;;;7.45;1.40;;;19.40;81.30;;;;;;7413178;19;20010;-87
2022/10/02 07:38:54;;;;;;;8.00;1.70;;;19.20;82.00;;;;;;7388905;19;20038;-87
2022/10/02 07:42:14;;;;;;;7.55;1.85;;;19.20;81.40;;;;;;7382209;19;20049;-87
2022/10/02 07:45:04;;;;;;;10.23;2.08;;;19.20;83.00;;;;;;7379819;19;20011;-86
2022/10/02 07:47:59;;;;;;;12.45;1.92;;;19.30;81.40;;;;;;7380124;19;20021;-86
2022/10/02 07:50:40;;;;;;;7.22;1.73;;;19.40;81.20;;;;;;7386595;19;20010;-87
2022/10/02 07:53:18;;;;;;;16.30;1.92;;;19.40;80.80;;;;;;7384422;19;20014;-84
2022/10/02 07:55:54;;;;;;;12.13;2.03;;;19.50;80.40;;;;;;7383969;19;20018;-86
2022/10/02 07:58:33;;;;;;;11.90;1.85;;;19.50;79.80;;;;;;7383970;19;20109;-85
2022/10/02 08:01:05;;;;;;;12.75;1.90;;;19.60;79.70;;;;;;7381563;19;20014;-86
2022/10/02 08:03:37;;;;;;;9.95;2.38;;;19.60;79.70;;;;;;7384542;19;20023;-85
2022/10/02 08:06:10;;;;;;;12.63;2.40;;;19.40;80.00;;;;;;7376562;19;20014;-85
2022/10/02 08:08:46;;;;;;;16.58;2.38;;;19.50;80.30;;;;;;7399243;19;20018;-86
2022/10/02 08:11:19;;;;;;;14.35;2.65;;;19.70;79.80;;;;;;7377938;19;20067;-86
2022/10/02 08:13:53;;;;;;;12.65;2.08;;;19.50;79.30;;;;;;7375824;19;20027;-86
2022/10/02 08:16:24;;;;;;;22.42;2.45;;;19.50;79.50;;;;;;7375369;19;20031;-86
2022/10/02 08:18:58;;;;;;;10.80;2.50;;;19.60;79.80;;;;;;7375389;19;20019;-86
2022/10/02 08:21:37;;;;;;;21.88;2.83;;;19.60;79.80;;;;;;7375249;19;20089;-86
2022/10/02 08:24:13;;;;;;;9.07;2.65;;;19.60;79.60;;;;;;7374706;19;20022;-87
2022/10/02 08:26:47;;;;;;;17.98;3.03;;;19.50;79.50;;;;;;7399636;19;20011;-87
2022/10/02 08:29:22;;;;;;;13.35;2.42;;;19.70;80.30;;;;;;7379240;19;20083;-87
2022/10/02 08:31:54;;;;;;;23.92;2.97;;;19.70;79.20;;;;;;7376698;19;20010;-87
2022/10/02 08:34:25;;;;;;;20.48;2.55;;;19.90;78.90;;;;;;7378916;19;20126;-87
2022/10/02 08:37:19;;;;;;;11.73;2.20;;;19.90;78.60;;;;;;7380116;19;20010;-87
2022/10/02 08:40:24;;;;;;;15.75;2.58;;;20.00;78.80;;;;;;7377155;19;20022;-87
2022/10/02 08:43:21;;;;;;;11.75;2.25;;;20.10;78.10;;;;;;7374635;19;20524;-87
2022/10/02 08:46:20;;;;;;;14.73;2.53;;;20.10;78.30;;;;;;7376054;19;20010;-87
2022/10/02 08:49:20;;;;;;;13.00;2.33;;;20.10;78.20;;;;;;7384448;19;20010;-86
2022/10/02 08:52:12;;;;;;;6.88;2.10;;;19.80;78.90;;;;;;7383218;19;20023;-86
2022/10/02 08:55:32;;;;;;;11.35;2.08;;;19.90;78.50;;;;;;7377984;19;20026;-86
2022/10/02 08:58:33;;;;;;;14.02;4.72;;;20.10;78.30;;;;;;7378951;19;20021;-87
2022/10/02 09:01:17;;;;;;;14.45;2.55;;;20.30;77.70;;;;;;7379083;19;20047;-87
2022/10/02 09:04:27;;;;;;;11.30;2.30;;;20.20;77.50;;;;;;7383522;19;20015;-87
2022/10/02 09:07:39;;;;;;;11.85;1.98;;;20.40;77.70;;;;;;7383064;19;20015;-87
2022/10/02 09:20:40;;;;;;;9.07;1.77;;;20.00;79.10;;;;;;7381619;19;20117;-87
2022/10/02 09:33:38;;;;;;;7.65;1.42;;;20.30;78.40;;;;;;7285646;19;2004266;-82
2022/10/02 10:21:10;;;;;;;7.63;1.30;;;21.10;76.10;;;;;;7364415;19;20482;-87
2022/10/02 11:16:36;;;;;;;4.35;1.00;;;21.40;71.80;;;;;;7344034;19;20037;-83
2022/10/02 12:28:00;;;;;;;2.90;1.08;;;21.50;74.30;;;;;;7425797;19;20351;-86
2022/10/02 12:30:34;;;;;;;;;;;21.40;75.50;;;;;;7422225;19;20673;-88
2022/10/02 12:33:26;;;;;;;6.47;1.88;;;21.50;74.00;;;;;;7388051;19;19914;-88
2022/10/02 12:36:10;;;;;;;3.17;1.00;;;21.50;74.10;;;;;;7446171;19;20033;-85
2022/10/02 12:38:54;;;;;;;2.13;1.20;;;21.60;73.80;;;;;;7422684;19;20014;-89
2022/10/02 12:54:54;;;;;;;8.25;1.63;;;20.80;81.60;;;;;;7356352;19;20273;-88
2022/10/02 12:57:54;;;;;;;6.25;1.50;;;20.80;83.60;;;;;;7431664;19;20026;-90
2022/10/02 13:00:38;;;;;;;6.85;1.25;;;21.00;82.90;;;;;;7441336;19;20042;-90
2022/10/02 13:03:49;;;;;;;5.82;1.17;;;20.90;81.70;;;;;;7414162;19;20010;-90
2022/10/02 13:07:03;;;;;;;2.67;0.87;;;20.70;82.10;;;;;;7435497;19;20018;-90
2022/10/02 13:09:48;;;;;;;5.80;1.15;;;20.70;81.90;;;;;;7434530;19;20255;-90
2022/10/02 13:12:42;;;;;;;2.08;0.40;;;20.70;81.50;;;;;;7430978;19;20525;-90
2022/10/02 13:15:36;;;;;;;2.58;0.52;;;20.60;81.10;;;;;;7433558;19;20006;-90
2022/10/02 13:20:40;;;;;;;5.15;0.88;;;20.70;82.20;;;;;;7441943;19;19918;-91
2022/10/02 13:23:24;;;;;;;1.40;0.68;;;20.70;80.20;;;;;;7439514;19;20010;-90
2022/10/02 13:26:11;;;;;;;1.55;0.90;;;20.80;81.70;;;;;;7440697;19;20011;-90
2022/10/02 13:29:20;;;;;;;1.95;0.77;;;20.80;80.70;;;;;;7441266;19;20007;-90
2022/10/02 13:31:59;;;;;;;1.20;0.52;;;20.70;80.80;;;;;;7440840;19;20034;-90
2022/10/02 13:37:37;;;;;;;3.88;0.73;;;20.80;80.90;;;;;;7409945;19;20006;-90
2022/10/02 13:40:17;;;;;;;;;;;20.90;81.00;;;;;;7408946;19;20030;-89
2022/10/02 13:43:27;;;;;;;3.47;1.08;;;21.00;80.80;;;;;;7405901;19;19914;-91
2022/10/02 13:46:07;;;;;;;7.82;1.40;;;21.00;81.20;;;;;;7402436;19;20015;-89
2022/10/02 13:48:53;;;;;;;4.68;0.95;;;21.10;81.00;;;;;;7404685;19;20018;-89
2022/10/02 13:51:30;;;;;;;3.78;1.02;;;21.10;79.70;;;;;;7403152;19;20062;-90
2022/10/02 13:54:18;;;;;;;2.50;1.50;;;21.10;80.00;;;;;;7423198;19;20010;-89
2022/10/02 13:56:54;;;;;;;4.45;0.88;;;21.20;80.00;;;;;;7397643;19;20018;-89
2022/10/02 13:59:43;;;;;;;2.17;0.80;;;21.20;80.40;;;;;;7398669;19;20006;-90
2022/10/02 14:02:27;;;;;;;6.28;1.30;;;21.30;80.40;;;;;;7401509;19;20021;-90
2022/10/02 14:05:06;;;;;;;5.35;1.00;;;21.30;80.20;;;;;;7407341;19;20003;-91
2022/10/02 14:10:32;;;;;;;2.90;0.90;;;21.40;78.30;;;;;;7406616;19;20103;-90
2022/10/02 14:13:16;;;;;;;2.50;1.10;;;21.40;78.60;;;;;;7402795;19;20007;-89
2022/10/02 14:16:06;;;;;;;4.30;0.50;;;21.10;75.20;;;;;;7406920;19;20026;-88
2022/10/02 14:19:02;;;;;;;6.38;0.93;;;20.70;78.80;;;;;;7407947;19;20028;-86
2022/10/02 14:21:38;;;;;;;2.70;0.57;;;20.50;79.90;;;;;;7404079;19;20010;-89
2022/10/02 14:27:21;;;;;;;7.47;0.88;;;20.10;83.00;;;;;;7405683;19;20021;-90
2022/10/02 14:29:58;;;;;;;1.58;0.50;;;19.70;84.50;;;;;;7430662;19;20014;-91
2022/10/02 14:35:54;;;;;;;2.20;0.63;;;19.30;86.30;;;;;;7390085;19;19994;-87
2022/10/02 14:38:38;;;;;;;4.78;1.13;;;19.40;86.60;;;;;;7434689;19;20027;-94
2022/10/02 14:43:58;;;;;;;2.55;1.00;;;19.70;86.50;;;;;;7400653;19;21204;-90
2022/10/02 14:46:38;;;;;;;2.55;0.85;;;19.80;86.20;;;;;;7409503;19;20062;-90
2022/10/02 14:49:28;;;;;;;2.03;0.77;;;19.70;85.80;;;;;;7401572;19;20011;-90
2022/10/02 14:52:26;;;;;;;6.15;0.90;;;19.80;86.30;;;;;;7402385;19;20010;-90
2022/10/02 14:55:25;;;;;;;0.40;0.40;;;19.80;86.20;;;;;;7404154;19;20038;-88
2022/10/02 14:58:18;;;;;;;3.03;0.80;;;19.80;85.10;;;;;;7399134;19;20023;-88
2022/10/02 15:00:58;;;;;;;2.85;0.70;;;19.80;84.90;;;;;;7398950;19;20087;-88
2022/10/02 15:03:48;;;;;;;2.13;0.70;;;19.80;85.20;;;;;;7406470;19;20123;-88
2022/10/02 15:06:27;;;;;;;2.13;1.00;;;19.60;84.10;;;;;;7395189;19;20099;-88
2022/10/02 15:09:01;;;;;;;2.70;1.02;;;19.60;85.00;;;;;;7410523;19;20011;-87
2022/10/02 15:12:12;;;;;;;2.70;1.27;;;19.60;84.70;;;;;;7389504;19;20015;-87
2022/10/02 15:15:00;;;;;;;5.17;1.90;;;19.50;85.30;;;;;;7387545;19;20037;-86
2022/10/02 15:20:28;;;;;;;2.42;1.30;;;19.70;84.40;;;;;;7398237;19;20028;-87
2022/10/02 15:23:00;;;;;;;3.85;1.80;;;19.70;84.30;;;;;;7391330;19;20061;-87
2022/10/02 15:25:54;;;;;;;8.50;1.80;;;19.70;83.60;;;;;;7387365;19;20006;-87
2022/10/02 15:28:34;;;;;;;3.63;1.73;;;19.50;83.60;;;;;;7383257;19;20023;-88
2022/10/02 15:31:17;;;;;;;7.88;1.98;;;19.50;83.80;;;;;;7384923;19;20018;-86
2022/10/02 15:33:55;;;;;;;2.67;1.70;;;19.60;84.50;;;;;;7386320;19;20046;-87
2022/10/02 15:36:51;;;;;;;3.40;1.85;;;19.70;84.40;;;;;;7388728;19;20007;-87
2022/10/02 15:39:51;;;;;;;4.18;2.10;;;19.70;84.50;;;;;;7383251;19;20018;-86
2022/10/02 15:42:43;;;;;;;3.70;1.73;;;19.70;83.30;;;;;;7386517;19;20098;-87
2022/10/02 15:45:29;;;;;;;;;;;19.60;83.30;;;;;;7386484;19;20020;-87
2022/10/02 15:48:32;;;;;;;4.18;2.03;;;19.60;83.10;;;;;;7402667;19;19943;-87
2022/10/02 15:51:12;;;;;;;7.60;2.10;;;19.50;83.00;;;;;;7280606;19;2004508;-86
2022/10/02 15:53:57;;;;;;;5.10;2.75;;;19.40;83.60;;;;;;7404466;19;20057;-86
2022/10/02 15:56:46;;;;;;;4.15;2.28;;;19.40;83.10;;;;;;7385826;19;20006;-86
2022/10/02 15:59:45;;;;;;;4.68;2.50;;;19.40;84.00;;;;;;7391767;19;20025;-87
2022/10/02 16:02:33;;;;;;;5.07;3.42;;;19.40;84.30;;;;;;7384306;19;20014;-87
2022/10/02 16:05:17;;;;;;;5.50;2.90;;;19.40;84.10;;;;;;7382666;19;20095;-86
2022/10/02 16:08:06;;;;;;;4.53;2.40;;;19.40;83.30;;;;;;7381832;19;20002;-87
2022/10/02 16:10:50;;;;;;;3.22;2.75;;;19.40;83.40;;;;;;7382579;19;20026;-87
2022/10/02 16:13:35;;;;;;;16.30;2.42;;;19.40;83.40;;;;;;7386651;19;20014;-87
2022/10/02 16:16:17;;;;;;;2.53;2.10;;;19.40;83.10;;;;;;7384431;19;20021;-86
2022/10/02 16:19:00;;;;;;;2.92;2.20;;;19.30;82.50;;;;;;7387869;19;20044;-86
2022/10/02 16:21:54;;;;;;;3.65;2.20;;;19.40;83.60;;;;;;7389440;19;20345;-86
2022/10/02 16:24:47;;;;;;;5.07;2.55;;;19.30;82.70;;;;;;7385726;19;20099;-86
2022/10/02 16:27:26;;;;;;;2.95;2.30;;;19.40;83.00;;;;;;7381694;19;20032;-86
2022/10/02 16:30:07;;;;;;;3.38;2.17;;;19.40;82.80;;;;;;7403408;19;20036;-85
2022/10/02 16:32:48;;;;;;;4.17;2.50;;;19.40;82.70;;;;;;7384014;19;20014;-86
2022/10/02 16:35:27;;;;;;;7.45;2.47;;;19.40;82.40;;;;;;7382827;19;20263;-86
2022/10/02 16:38:06;;;;;;;4.10;2.47;;;19.50;82.70;;;;;;7387555;19;20018;-85
2022/10/02 16:40:45;;;;;;;3.58;2.60;;;19.50;82.60;;;;;;7392571;19;20007;-86
2022/10/02 16:43:50;;;;;;;4.03;2.83;;;19.50;82.40;;;;;;7381916;19;20014;-85
2022/10/02 16:46:25;;;;;;;3.90;2.63;;;19.50;82.30;;;;;;7379453;19;20014;-85
2022/10/02 16:49:00;;;;;;;5.03;2.58;;;19.50;82.00;;;;;;7385073;19;20097;-85
2022/10/02 16:51:44;;;;;;;3.55;2.65;;;19.50;82.70;;;;;;7379629;19;20014;-84
2022/10/02 16:54:25;;;;;;;6.57;2.85;;;19.50;82.80;;;;;;7376808;19;20090;-85
2022/10/02 16:57:00;;;;;;;3.70;2.47;;;19.50;82.70;;;;;;7402670;19;20015;-85
2022/10/02 16:59:32;;;;;;;4.53;2.70;;;19.50;81.70;;;;;;7380423;19;20091;-84
2022/10/02 17:02:06;;;;;;;3.08;2.78;;;19.50;82.30;;;;;;7381552;19;20011;-85
2022/10/02 17:04:46;;;;;;;2.70;2.33;;;19.50;82.30;;;;;;7379462;19;20022;-85
2022/10/02 17:07:34;;;;;;;2.67;2.10;;;19.50;82.40;;;;;;7382441;19;20015;-84
2022/10/02 17:10:15;;;;;;;9.15;3.00;;;19.50;81.90;;;;;;7380836;19;20454;-84
2022/10/02 17:12:50;;;;;;;6.97;2.85;;;19.50;81.60;;;;;;7379867;19;20073;-84
2022/10/02 17:15:24;;;;;;;6.47;3.20;;;19.40;81.30;;;;;;7384617;19;20019;-84
2022/10/02 17:18:11;;;;;;;4.90;2.90;;;19.40;81.80;;;;;;7401940;19;20446;-84
2022/10/02 17:20:45;;;;;;;5.13;3.30;;;19.30;81.40;;;;;;7386185;19;20448;-83
2022/10/02 17:23:21;;;;;;;5.60;3.00;;;19.30;81.10;;;;;;7382418;19;20010;-84
2022/10/02 17:26:03;;;;;;;5.80;3.75;;;19.30;80.30;;;;;;7384720;19;20019;-84
2022/10/02 17:28:40;;;;;;;4.80;3.63;;;19.20;81.00;;;;;;7384037;19;20468;-84
2022/10/02 17:31:35;;;;;;;5.40;4.18;;;19.20;82.20;;;;;;7385645;19;20011;-84
2022/10/02 17:34:18;;;;;;;7.25;4.00;;;19.10;81.10;;;;;;7388151;19;20018;-85
2022/10/02 17:36:55;;;;;;;8.90;4.30;;;19.10;81.80;;;;;;7386980;19;20385;-84
2022/10/02 17:39:50;;;;;;;7.75;4.55;;;19.10;82.40;;;;;;7385582;19;20010;-83
2022/10/02 17:42:34;;;;;;;6.40;4.75;;;19.10;82.40;;;;;;7383949;19;20014;-84